createdAt,value
2019-05-15T00:00:39.162Z,1022
2019-05-15T00:05:42.874Z,1023
2019-05-15T00:10:52.862Z,1022
2019-05-15T00:16:02.795Z,1022
2019-05-15T00:21:09.767Z,1022
2019-05-15T00:26:12.781Z,1022
2019-05-15T00:31:19.112Z,1022
2019-05-15T00:36:22.819Z,1022
2019-05-15T00:41:28.274Z,1022
2019-05-15T00:46:38.883Z,1022
2019-05-15T00:51:49.165Z,1022
2019-05-15T00:56:52.968Z,1022
2019-05-15T01:01:59.866Z,1022
2019-05-15T01:07:02.769Z,1022
2019-05-15T01:12:09.533Z,1022
2019-05-15T01:17:18.981Z,1022
2019-05-15T01:22:29.148Z,1022
2019-05-15T01:27:32.722Z,1022
2019-05-15T01:32:40.090Z,1022
2019-05-15T01:37:42.750Z,1022
2019-05-15T01:42:50.210Z,1022
2019-05-15T01:47:59.004Z,1022
2019-05-15T01:53:08.871Z,1022
2019-05-15T01:58:12.773Z,1022
2019-05-15T02:03:18.831Z,1022
2019-05-15T02:08:22.783Z,1022
2019-05-15T02:13:28.746Z,1022
2019-05-15T02:18:39.709Z,1022
2019-05-15T02:23:48.626Z,1022
2019-05-15T02:28:52.716Z,1022
2019-05-15T02:33:59.569Z,1022
2019-05-15T02:39:02.767Z,1022
2019-05-15T02:44:11.372Z,1022
2019-05-15T02:54:10.989Z,1022
2019-05-15T02:59:12.891Z,1022
2019-05-15T03:04:20.499Z,1022
2019-05-15T03:09:30.435Z,1022
2019-05-15T03:14:40.472Z,1022
2019-05-15T03:19:42.901Z,1022
2019-05-15T03:24:50.797Z,1022
2019-05-15T03:29:52.859Z,1022
2019-05-15T03:35:07.703Z,1022
2019-05-15T03:36:04.355Z,1022
2019-05-15T03:40:11.238Z,1022
2019-05-15T03:45:19.715Z,1022
2019-05-15T03:50:22.878Z,1022
2019-05-15T03:55:30.138Z,1022
2019-05-15T04:00:32.880Z,1022
2019-05-15T04:05:39.665Z,1022
2019-05-15T04:10:49.334Z,1022
2019-05-15T04:15:59.936Z,1022
2019-05-15T04:21:02.849Z,1022
2019-05-15T04:26:09.934Z,1022
2019-05-15T04:31:12.877Z,1022
2019-05-15T04:36:19.753Z,1022
2019-05-15T04:41:22.841Z,1021
2019-05-15T04:46:32.931Z,1021
2019-05-15T04:51:42.935Z,1021
2019-05-15T04:56:49.434Z,1022
2019-05-15T05:03:04.157Z,1022
2019-05-15T05:06:59.214Z,1022
2019-05-15T05:12:02.952Z,1022
2019-05-15T05:17:12.794Z,1022
2019-05-15T05:22:22.863Z,1022
2019-05-15T05:27:29.248Z,1021
2019-05-15T05:32:39.360Z,1021
2019-05-15T05:37:39.530Z,1022
2019-05-15T05:42:42.833Z,1022
2019-05-15T05:47:52.704Z,1022
2019-05-15T05:53:02.771Z,1022
2019-05-15T05:58:08.581Z,1021
2019-05-15T06:03:12.878Z,1021
2019-05-15T06:08:20.506Z,1021
2019-05-15T06:13:22.787Z,1021
2019-05-15T06:23:34.534Z,1021
2019-05-15T06:24:30.987Z,1021
2019-05-15T06:28:29.669Z,1021
2019-05-15T06:33:32.976Z,1021
2019-05-15T06:38:42.953Z,1021
2019-05-15T06:43:52.964Z,1021
2019-05-15T06:48:58.575Z,1021
2019-05-15T06:54:02.922Z,1021
2019-05-15T06:59:09.323Z,1021
2019-05-15T07:04:12.993Z,1021
2019-05-15T07:09:23.180Z,1021
2019-05-15T07:14:32.933Z,1021
2019-05-15T07:19:39.773Z,1021
2019-05-15T07:29:39.051Z,1021
2019-05-15T07:34:43.263Z,1021
2019-05-15T07:39:49.256Z,1021
2019-05-15T07:44:59.376Z,1021
2019-05-15T07:50:09.936Z,1021
2019-05-15T07:55:13.321Z,1021
2019-05-15T08:00:19.579Z,1021
2019-05-15T08:05:23.178Z,1021
2019-05-15T08:10:28.963Z,1021
2019-05-15T08:15:38.695Z,1021
2019-05-15T08:20:49.691Z,1021
2019-05-15T08:25:53.206Z,1021
2019-05-15T08:35:53.542Z,1021
2019-05-15T08:40:59.717Z,1021
2019-05-15T08:46:03.465Z,1020
2019-05-15T08:51:13.402Z,1021
2019-05-15T08:56:23.399Z,1021
2019-05-15T09:01:29.236Z,1020
2019-05-15T09:06:33.511Z,1020
2019-05-15T09:11:39.829Z,1020
2019-05-15T09:16:43.339Z,1020
2019-05-15T09:21:53.506Z,1020
2019-05-15T09:27:03.360Z,1020
2019-05-15T09:32:12.885Z,1020
2019-05-15T09:37:13.375Z,1020
2019-05-15T09:42:18.574Z,1020
2019-05-15T09:47:23.327Z,1020
2019-05-15T09:52:30.604Z,1020
2019-05-15T09:57:33.312Z,1020
2019-05-15T10:02:40.042Z,1020
2019-05-15T10:07:43.395Z,1020
2019-05-15T10:12:49.946Z,1020
2019-05-15T10:17:53.382Z,1020
2019-05-15T10:22:59.550Z,1019
2019-05-15T10:28:10.493Z,1020
2019-05-15T10:33:20.835Z,1019
2019-05-15T10:38:23.397Z,1020
2019-05-15T10:43:29.326Z,1019
2019-05-15T10:48:33.529Z,1019
2019-05-15T10:53:39.676Z,1019
2019-05-15T10:58:51.040Z,1019
2019-05-15T11:03:59.358Z,1019
2019-05-15T11:09:03.350Z,1019
2019-05-15T11:14:09.644Z,1019
2019-05-15T11:19:13.299Z,1019
2019-05-15T11:24:20.052Z,1019
2019-05-15T11:29:28.347Z,1019
2019-05-15T11:34:38.827Z,1019
2019-05-15T11:39:47.632Z,1019
2019-05-15T11:44:48.925Z,1019
2019-05-15T11:49:53.293Z,1019
2019-05-15T11:54:59.441Z,1019
2019-05-15T12:04:58.997Z,1019
2019-05-15T12:10:03.441Z,1019
2019-05-15T12:15:08.517Z,1019
2019-05-15T12:20:19.926Z,1019
2019-05-15T12:25:32.349Z,1018
2019-05-15T12:30:33.419Z,1018
2019-05-15T12:59:51.853Z,1018
2019-05-15T13:01:33.435Z,1018
2019-05-15T13:07:50.732Z,1018
2019-05-15T13:11:48.932Z,1018
2019-05-15T13:16:53.440Z,1018
2019-05-15T13:21:58.461Z,1018
2019-05-15T13:27:03.397Z,1018
2019-05-15T13:32:13.260Z,1018
2019-05-15T13:37:31.235Z,1018
2019-05-15T13:42:28.499Z,1018
2019-05-15T13:47:33.359Z,1018
2019-05-15T13:52:39.848Z,1018
2019-05-15T13:57:43.300Z,1018
2019-05-15T14:02:53.370Z,1018
2019-05-15T14:08:03.341Z,1018
2019-05-15T14:13:08.283Z,1018
2019-05-15T14:18:14.609Z,1018
2019-05-15T14:23:19.028Z,1018
2019-05-15T14:28:23.370Z,1018
2019-05-15T14:33:33.414Z,1018
2019-05-15T14:43:38.817Z,1018
2019-05-15T14:48:43.736Z,1018
2019-05-15T14:53:49.921Z,1018
2019-05-15T14:58:59.088Z,1018
2019-05-15T15:04:09.862Z,1017
2019-05-15T15:09:13.449Z,1017
2019-05-15T15:14:18.520Z,1017
2019-05-15T15:19:23.508Z,1017
2019-05-15T15:24:28.485Z,1017
2019-05-15T15:29:39.322Z,1018
2019-05-15T15:34:48.512Z,1017
2019-05-15T15:39:53.556Z,1018
2019-05-15T15:44:58.704Z,1017
2019-05-15T15:50:04.070Z,1017
2019-05-15T15:55:09.566Z,1017
2019-05-15T16:00:18.979Z,1017
2019-05-15T16:05:29.556Z,1017
2019-05-15T16:10:33.458Z,1017
2019-05-15T16:15:39.162Z,1017
2019-05-15T16:20:43.631Z,1017
2019-05-15T16:25:49.736Z,1017
2019-05-15T16:30:53.520Z,1017
2019-05-15T16:36:03.448Z,1017
2019-05-15T16:41:13.579Z,1017
2019-05-15T16:46:19.681Z,1017
2019-05-15T16:56:19.486Z,1017
2019-05-15T17:01:23.738Z,1017
2019-05-15T17:06:28.817Z,1017
2019-05-15T17:11:38.874Z,1017
2019-05-15T17:16:48.615Z,1017
2019-05-15T17:21:53.638Z,1017
2019-05-15T17:27:00.115Z,1017
2019-05-15T17:32:03.657Z,1017
2019-05-15T17:37:08.739Z,1017
2019-05-15T17:42:13.667Z,1017
2019-05-15T17:47:18.702Z,1017
2019-05-15T17:52:23.603Z,1017
2019-05-15T17:57:29.117Z,1017
2019-05-15T18:02:33.692Z,1017
2019-05-15T18:12:33.710Z,1017
2019-05-15T18:17:42.161Z,1017
2019-05-15T18:22:43.719Z,1017
2019-05-15T18:27:53.739Z,1017
2019-05-15T18:33:03.668Z,1017
2019-05-15T18:38:09.119Z,1017
2019-05-15T18:43:13.891Z,1017
2019-05-15T18:48:18.968Z,1017
2019-05-15T18:53:23.690Z,1017
2019-05-15T18:58:33.696Z,1017
2019-05-15T19:03:43.711Z,1017
2019-05-15T19:08:48.715Z,1017
2019-05-15T19:13:53.705Z,1017
2019-05-15T19:23:53.944Z,1017
2019-05-15T19:28:59.721Z,1017
2019-05-15T19:34:04.105Z,1017
2019-05-15T19:39:13.815Z,1017
2019-05-15T19:44:24.321Z,1017
2019-05-15T19:49:28.835Z,1017
2019-05-15T19:54:33.855Z,1017
2019-05-15T19:59:38.775Z,1017
2019-05-15T20:04:43.796Z,1017
2019-05-15T20:09:54.264Z,1017
2019-05-15T20:15:03.870Z,1017
2019-05-15T20:20:09.480Z,1017
2019-05-15T20:25:13.884Z,1017
2019-05-15T20:30:18.822Z,1017
2019-05-15T20:35:24.250Z,1017
2019-05-15T20:40:33.801Z,1017
2019-05-15T20:45:44.043Z,1017
2019-05-15T20:50:49.021Z,1016
2019-05-15T20:55:53.825Z,1016
2019-05-15T21:00:59.629Z,1016
2019-05-15T21:06:03.832Z,1016
2019-05-15T21:11:13.886Z,1016
2019-05-15T21:16:28.366Z,1016
2019-05-15T21:26:24.532Z,1016
2019-05-15T21:31:29.121Z,1016
2019-05-15T21:36:34.056Z,1016
2019-05-15T21:41:44.065Z,1016
2019-05-15T21:46:53.963Z,1016
2019-05-15T21:51:59.087Z,1016
2019-05-15T21:58:19.073Z,1016
2019-05-15T22:02:09.019Z,1016
2019-05-15T22:07:13.998Z,1016
2019-05-15T22:12:23.972Z,1016
2019-05-15T22:17:34.017Z,1016
2019-05-15T22:22:38.981Z,1016
2019-05-15T22:27:43.977Z,1016
2019-05-15T22:32:50.066Z,1016
2019-05-15T22:37:53.934Z,1015
2019-05-15T22:43:03.893Z,1015
2019-05-15T22:48:13.900Z,1015
2019-05-15T22:53:19.737Z,1015
2019-05-15T22:58:23.878Z,1015
2019-05-15T23:03:28.887Z,1015
2019-05-15T23:08:33.877Z,1015
2019-05-15T23:18:34.091Z,1015
2019-05-15T23:23:39.103Z,1015
2019-05-15T23:28:44.131Z,1015
2019-05-15T23:33:54.026Z,1015
2019-05-15T23:39:04.038Z,1015
2019-05-15T23:44:09.107Z,1015
2019-05-15T23:49:14.017Z,1015
2019-05-15T23:54:19.180Z,1015
2019-05-15T23:59:24.084Z,1015
